Terminal Aerodrome Forecast
Issued by NWS St Louis, MO

Home | Current Version | Previous Version | Text Only | Print | Product List | Glossary On
Versions: 1 2 3 4 5 6 7 8 9 10 11 12 13 14 15 16 17 18 19 20 21 22 23 24 25
000
FTUS43 KLSX 171726
TAFSTL
TAF
KSTL 171726Z 1718/1824 18005KT P6SM BKN045
     FM172100 19006KT P6SM -DZ BKN025
     FM180300 20005KT P6SM OVC015
     FM181800 25006KT P6SM OVC025
     FM182000 24007KT P6SM SCT100=

USA.gov is the U.S. government's official web portal to all federal, state and local government web resources and services.